• Join FlightAware (Why Join?)
  • Login
  • US Flag 
01:51PM EDT


 

Airport Tracker/Info


-or-


 

Live Flight TrackerFlight Track Log ✈ VH-BDP ✈ 14-Jun-2013 ✈ YPJT / JAD - YMDN

Flight Track Log - Related Links

Times and Time Zones

All times are in EDT time to prevent confusion due to time zone crossing. See the VH-BDP flight status page for this flight to view local times or setup timezone preferences in your user account.

Time Position Orientation Groundspeed Altitude Reporting Facility
EDT Latitude Longitude Course Direction KTS MPH feet Rate Location/Type
10:59PM -32.0961 115.9114 132° Southeast 84 97 1,100  Level Aus ATC (RADAR)
11:00PM -32.1149 115.9363 132° Southeast 110 127 1,000  Descending Aus ATC (RADAR)
11:01PM -32.1276 115.9526 133° Southeast 112 129 1,100 60 Climbing Aus ATC (RADAR)
11:02PM -32.1559 115.9912 131° Southeast 116 133 1,200 60 Climbing Aus ATC (RADAR)
11:02PM -32.1610 115.9978 133° Southeast 111 128 1,200 720 Level Aus ATC (RADAR)
11:03PM -32.1657 116.0138 109° East 83 96 1,800 780 Climbing Aus ATC (RADAR)
11:04PM -32.1653 116.0381 89° East 77 89 2,400 420 Climbing Aus ATC (RADAR)
11:04PM -32.1697 116.0555 106° East 92 106 2,500  Climbing Aus ATC (RADAR)
11:05PM -32.1698 116.0898 90° East 103 119 2,400  Descending Aus ATC (RADAR)
11:06PM -32.1629 116.1080 66° East 101 116 2,500 420 Climbing Aus ATC (RADAR)
11:07PM -32.1511 116.1332 61° Northeast 79 91 3,100 360 Climbing Aus ATC (RADAR)
11:07PM -32.1466 116.1382 43° Northeast 84 97 3,000  Descending Aus ATC (RADAR)
11:08PM -32.1317 116.1449 21° North 97 112 3,100 60 Climbing Aus ATC (RADAR)
11:09PM -32.1088 116.1601 29° Northeast 104 120 3,100  Level Aus ATC (RADAR)
11:09PM -32.0942 116.1707 32° Northeast 105 121 3,100  Level Aus ATC (RADAR)
11:10PM -32.0725 116.1862 31° Northeast 99 114 3,100  Level Aus ATC (RADAR)
11:10PM -32.0665 116.1902 29° Northeast 100 115 3,100  Level Aus ATC (RADAR)
11:11PM -32.0516 116.1978 23° Northeast 100 115 3,100 -120 Level Aus ATC (RADAR)
11:12PM -32.0238 116.2109 22° Northeast 99 114 2,900 -120 Descending Aus ATC (RADAR)
11:12PM -32.0176 116.2136 20° North 98 113 3,000 240 Climbing Aus ATC (RADAR)
11:13PM -32.0026 116.2197 19° North 99 114 3,100  Climbing Aus ATC (RADAR)
11:14PM -31.9858 116.2476 55° Northeast 105 121 3,000  Descending Aus ATC (RADAR)
11:14PM -31.9759 116.2634 54° Northeast 100 115 3,100 60 Climbing Aus ATC (RADAR)
11:15PM -31.9597 116.2879 52° Northeast 102 117 3,100 -120 Level Aus ATC (RADAR)
11:16PM -31.9505 116.3040 56° Northeast 100 115 3,000 -60 Descending Aus ATC (RADAR)
11:17PM -31.9269 116.3262 39° Northeast 103 119 3,000  Level Aus ATC (RADAR)
11:19PM -31.9533 116.4187 360° North 5,500 780 Climbing Aus ATC (Calculated)
11:20PM -31.9533 116.4187 360° North 5,500  Level Aus ATC (Calculated)
11:20PM -31.9533 116.4187 330° Northwest 5,500  Level Aus ATC (Calculated)
11:22PM -31.9247 116.3991 330° Northwest  Level FlightAware Approximate
11:22PM -31.9780 116.5056 74° East 5,500  Level Aus ATC (Calculated)
11:24PM -31.9638 116.5645 112° Southeast  Level Estimated
11:25PM -31.9739 116.5974 110° East  Level FlightAware Approximate
11:26PM -31.9841 116.6302 110° East  Level FlightAware Approximate
11:27PM -31.9942 116.6631 110° East  Level FlightAware Approximate
11:28PM -32.0043 116.6960 110° East  Level FlightAware Approximate
11:28PM -32.0242 116.6685 108° East 5,500  Level Aus ATC (Calculated)
11:29PM -32.0443 116.7398 344° North 5,500  Level Aus ATC (Calculated)
11:29PM -32.0443 116.7398 108° East 5,500  Level Aus ATC (Calculated)
11:31PM -32.0579 116.7880 108° East  Level FlightAware Approximate
11:32PM -32.0673 116.8212 108° East  Level FlightAware Approximate
11:33PM -32.0766 116.8545 108° East  Level FlightAware Approximate
11:34PM -32.0860 116.8877 108° East  Level FlightAware Approximate
11:35PM -32.0953 116.9210 108° East  Level FlightAware Approximate
11:36PM -32.1046 116.9542 108° East  Level FlightAware Approximate
11:37PM -32.1139 116.9875 108° East  Level FlightAware Approximate
11:38PM -32.1232 117.0207 108° East  Level FlightAware Approximate
11:39PM -32.1325 117.0540 108° East  Level FlightAware Approximate
11:40PM -32.1418 117.0873 108° East  Level FlightAware Approximate
11:41PM -32.1510 117.1206 108° East  Level FlightAware Approximate
11:42PM -32.1603 117.1539 108° East  Level FlightAware Approximate
11:43PM -32.1696 117.1872 108° East  Level FlightAware Approximate
11:44PM -32.1788 117.2205 108° East  Level FlightAware Approximate
11:45PM -32.1881 117.2538 108° East  Level FlightAware Approximate
11:46PM -32.1973 117.2872 108° East  Level FlightAware Approximate
11:47PM -32.2065 117.3205 108° East  Level FlightAware Approximate
11:48PM -32.2157 117.3538 108° East  Level FlightAware Approximate
11:48PM -32.2127 117.3428 108° East 5,500  Level Aus ATC (Calculated)
11:50PM -32.2244 117.3850 108° East  Level FlightAware Approximate
11:51PM -32.2336 117.4184 108° East  Level FlightAware Approximate
11:52PM -32.2428 117.4517 108° East  Level FlightAware Approximate
11:53PM -32.2519 117.4851 108° East  Level FlightAware Approximate
11:54PM -32.2611 117.5185 108° East  Level FlightAware Approximate
11:55PM -32.2703 117.5519 108° East  Level FlightAware Approximate
11:56PM -32.2794 117.5853 108° East  Level FlightAware Approximate
11:57PM -32.2886 117.6186 108° East  Level FlightAware Approximate
11:58PM -32.2977 117.6520 108° East  Level FlightAware Approximate
11:59PM -32.3068 117.6854 108° East  Level FlightAware Approximate
12:00AM -32.3159 117.7189 108° East  Level FlightAware Approximate
12:01AM -32.3251 117.7523 108° East  Level FlightAware Approximate
12:02AM -32.3342 117.7857 108° East  Level FlightAware Approximate
12:02AM -32.3417 117.8133 29° Northeast  Level Aus ATC (Calculated)
12:04AM -32.3408 117.8139 28° Northeast  Level FlightAware Approximate
12:05AM -32.3146 117.8303 28° Northeast  Level FlightAware Approximate
12:06AM -32.2883 117.8467 28° Northeast  Level FlightAware Approximate
12:07AM -32.2621 117.8631 28° Northeast  Level FlightAware Approximate
12:08AM -32.2359 117.8795 28° Northeast  Level FlightAware Approximate
12:09AM -32.2096 117.8959 28° Northeast  Level FlightAware Approximate
12:10AM -32.1834 117.9122 28° Northeast  Level FlightAware Approximate
12:11AM -32.1571 117.9286 28° Northeast  Level FlightAware Approximate
12:12AM -32.1309 117.9450 28° Northeast  Level FlightAware Approximate
12:13AM -32.1046 117.9613 28° Northeast  Level FlightAware Approximate
12:14AM -32.0784 117.9777 28° Northeast  Level FlightAware Approximate
12:15AM -32.0521 117.9940 28° Northeast  Level FlightAware Approximate
12:16AM -32.0259 118.0103 28° Northeast  Level FlightAware Approximate
12:17AM -31.9996 118.0266 28° Northeast  Level FlightAware Approximate
12:18AM -31.9733 118.0429 28° Northeast  Level FlightAware Approximate
12:19AM -31.9471 118.0592 28° Northeast  Level FlightAware Approximate
12:20AM -31.9208 118.0755 28° Northeast  Level FlightAware Approximate
12:21AM -31.8946 118.0918 28° Northeast  Level FlightAware Approximate
12:22AM -31.8683 118.1080 28° Northeast  Level FlightAware Approximate
12:23AM -31.8420 118.1243 28° Northeast  Level FlightAware Approximate
12:24AM -31.8157 118.1405 28° Northeast  Level FlightAware Approximate
12:25AM -31.7895 118.1567 28° Northeast  Level FlightAware Approximate
12:26AM -31.7632 118.1730 28° Northeast  Level FlightAware Approximate
12:27AM -31.7369 118.1892 28° Northeast  Level FlightAware Approximate
12:28AM -31.7106 118.2054 28° Northeast  Level FlightAware Approximate
12:29AM -31.6843 118.2216 28° Northeast  Level FlightAware Approximate
12:30AM -31.6581 118.2378 28° Northeast  Level FlightAware Approximate
12:31AM -31.6318 118.2539 28° Northeast  Level FlightAware Approximate
12:32AM -31.6055 118.2701 28° Northeast  Level FlightAware Approximate
12:33AM -31.5792 118.2863 28° Northeast  Level FlightAware Approximate
12:34AM -31.5529 118.3024 28° Northeast  Level FlightAware Approximate
12:35AM -31.5266 118.3186 28° Northeast  Level FlightAware Approximate
12:36AM -31.5233 118.3206 28° Northeast  Level FlightAware Approximate
12:37AM -31.5251 118.3221 28° Northeast  Level Estimated
12:38AM -31.5233 118.3206 28° Northeast  Level FlightAware Approximate
12:39AM -31.5251 118.3221 28° Northeast  Level Estimated